Terminal Aerodrome Forecast
Issued by NWS

Home | Current Version | Previous Version | Text Only | Print | Product List | Glossary On
Versions: 1 2 3 4 5 6 7 8 9 10 11 12 13
000
FTUS46 KPDT 202300
TAFALW
TAF
KALW 202325Z 2100/2124 25012G20KT P6SM FEW060 FEW200
     FM210400 18008KT P6SM SKC
     FM211000 19009KT P6SM SCT040 SCT080
     FM211800 24010G18KT P6SM SCT080 SCT250=

USA.gov is the U.S. government's official web portal to all federal, state and local government web resources and services.